Terminal Aerodrome Forecast
Issued by NWS Green Bay, WI

Home | Current Version | Previous Version | Graphics & Text | Print | Product List | Glossary On
Versions: 1 2 3 4 5 6 7 8 9 10 11 12 13 14 15 16 17 18 19 20 21 22 23 24 25 26 27 28 29 30 31 32 33 34 35 36 37 38 39 40 41 42
000
FTUS43 KGRB 220200 AAA
TAFGRB
TAF AMD
KGRB 220210Z 2202/2224 19010G15KT P6SM FEW020 BKN120 WS015/21040KT
      TEMPO 2204/2205 BKN020
     FM220500 19011G15KT P6SM BKN020 OVC120 WS015/22045KT
     FM220600 21011KT P6SM SCT009 OVC020 WS015/23040KT
      TEMPO 2206/2210 4SM -FZDZ BR OVC012
     FM221000 21009KT 5SM -FZRA BR OVC007 WS015/24035KT
     FM221500 21009KT 5SM -DZ BR OVC009=

USA.gov is the U.S. government's official web portal to all federal, state and local government web resources and services.